createdAt,value
2022-08-29T00:01:54.607Z,99.99
2022-08-29T00:06:54.152Z,99.99
2022-08-29T00:15:55.109Z,99.99
2022-08-29T00:17:54.876Z,99.99
2022-08-29T00:25:54.985Z,99.99
2022-08-29T00:29:54.789Z,99.99
2022-08-29T00:33:55.318Z,99.99
2022-08-29T00:35:55.372Z,99.99
2022-08-29T00:36:55.399Z,99.99
2022-08-29T00:37:55.331Z,99.99
2022-08-29T00:38:55.256Z,99.99
2022-08-29T00:40:55.110Z,99.99
2022-08-29T00:41:55.691Z,99.99
2022-08-29T00:43:55.396Z,99.99
2022-08-29T00:45:55.507Z,99.99
2022-08-29T00:46:55.477Z,99.99
2022-08-29T00:47:55.811Z,99.99
2022-08-29T00:48:55.533Z,99.99
2022-08-29T00:49:55.554Z,99.99
2022-08-29T00:51:55.399Z,99.99
2022-08-29T00:52:58.853Z,99.99
2022-08-29T00:53:56.259Z,99.99
2022-08-29T00:54:55.474Z,99.99
2022-08-29T00:55:55.517Z,99.99
2022-08-29T00:56:55.680Z,99.99
2022-08-29T00:57:56.973Z,99.99
2022-08-29T00:58:55.581Z,99.99
2022-08-29T01:00:38.502Z,99.99
2022-08-29T01:01:38.453Z,99.99
2022-08-29T01:02:40.441Z,99.99
2022-08-29T01:03:41.034Z,99.99
2022-08-29T01:04:38.535Z,99.99
2022-08-29T01:05:38.563Z,99.99
2022-08-29T01:06:38.591Z,99.99
2022-08-29T01:07:38.824Z,99.99
2022-08-29T01:08:38.644Z,99.99
2022-08-29T01:09:38.679Z,99.99
2022-08-29T01:10:38.700Z,99.99
2022-08-29T01:11:38.727Z,99.99
2022-08-29T01:12:38.756Z,99.99
2022-08-29T01:13:38.787Z,99.99
2022-08-29T01:14:38.925Z,99.99
2022-08-29T01:15:38.835Z,99.99
2022-08-29T01:16:39.119Z,99.99
2022-08-29T01:17:38.893Z,99.99
2022-08-29T01:18:38.916Z,99.99
2022-08-29T01:19:38.946Z,99.99
2022-08-29T01:20:38.972Z,99.99
2022-08-29T01:21:38.999Z,99.99
2022-08-29T01:22:39.227Z,99.99
2022-08-29T01:23:39.054Z,99.99
2022-08-29T01:24:39.087Z,99.99
2022-08-29T01:25:39.311Z,99.99
2022-08-29T01:26:39.134Z,99.99
2022-08-29T01:27:39.164Z,99.99
2022-08-29T01:28:39.189Z,99.99
2022-08-29T01:29:39.238Z,99.99
2022-08-29T01:30:39.243Z,99.99
2022-08-29T01:31:56.400Z,99.99
2022-08-29T01:32:39.297Z,99.99
2022-08-29T01:33:39.326Z,99.99
2022-08-29T01:35:39.392Z,99.99
2022-08-29T01:36:39.408Z,99.99
2022-08-29T01:37:39.754Z,99.99
2022-08-29T01:38:39.463Z,99.99
2022-08-29T01:39:39.487Z,99.99
2022-08-29T01:40:39.590Z,99.99
2022-08-29T01:41:39.543Z,99.99
2022-08-29T01:42:39.572Z,99.99
2022-08-29T01:43:39.596Z,99.99
2022-08-29T01:44:39.625Z,99.99
2022-08-29T01:45:39.978Z,99.99
2022-08-29T01:46:39.681Z,99.99
2022-08-29T01:47:39.719Z,99.99
2022-08-29T01:48:39.748Z,99.99
2022-08-29T01:49:40.976Z,99.99
2022-08-29T01:50:42.479Z,99.99
2022-08-29T01:51:39.831Z,99.99
2022-08-29T01:52:39.839Z,99.99
2022-08-29T01:53:39.880Z,99.99
2022-08-29T01:54:39.893Z,99.99
2022-08-29T01:55:39.922Z,99.99
2022-08-29T01:56:39.958Z,99.99
2022-08-29T01:57:39.977Z,99.99
2022-08-29T01:58:40.002Z,99.99
2022-08-29T01:59:40.040Z,99.99
2022-08-29T02:00:40.147Z,99.99
2022-08-29T02:01:40.655Z,99.99
2022-08-29T02:02:41.085Z,99.99
2022-08-29T02:03:40.148Z,99.99
2022-08-29T02:04:43.795Z,99.99
2022-08-29T02:05:40.190Z,99.99
2022-08-29T02:06:40.221Z,99.99
2022-08-29T02:07:40.243Z,99.99
2022-08-29T02:08:40.272Z,99.99
2022-08-29T02:09:40.304Z,99.99
2022-08-29T02:10:40.337Z,99.99
2022-08-29T02:11:40.356Z,99.99
2022-08-29T02:12:40.380Z,99.99
2022-08-29T02:13:40.409Z,99.99
2022-08-29T02:14:40.431Z,99.99
2022-08-29T02:15:40.459Z,99.99
2022-08-29T02:16:40.541Z,99.99
2022-08-29T02:17:40.513Z,99.99
2022-08-29T02:18:40.538Z,99.99
2022-08-29T02:19:41.374Z,99.99
2022-08-29T02:20:43.211Z,99.99
2022-08-29T02:21:41.223Z,99.99
2022-08-29T02:22:40.639Z,99.99
2022-08-29T02:24:26.570Z,99.99
2022-08-29T02:25:23.242Z,99.99
2022-08-29T02:26:23.267Z,99.99
2022-08-29T02:27:26.586Z,99.99
2022-08-29T02:28:23.928Z,99.99
2022-08-29T02:29:23.352Z,99.99
2022-08-29T02:31:10.953Z,99.99
2022-08-29T02:32:10.973Z,99.99
2022-08-29T02:33:10.986Z,99.99
2022-08-29T02:34:11.505Z,99.99
2022-08-29T02:35:11.038Z,99.99
2022-08-29T02:36:11.101Z,99.99
2022-08-29T02:37:11.091Z,99.99
2022-08-29T02:38:11.175Z,99.99
2022-08-29T02:39:11.146Z,99.99
2022-08-29T02:40:11.205Z,99.99
2022-08-29T02:41:14.288Z,99.99
2022-08-29T02:42:11.227Z,99.99
2022-08-29T02:43:11.253Z,99.99
2022-08-29T02:44:11.304Z,99.99
2022-08-29T02:45:11.844Z,99.99
2022-08-29T02:46:11.460Z,99.99
2022-08-29T02:47:11.361Z,99.99
2022-08-29T02:48:11.467Z,99.99
2022-08-29T02:49:11.414Z,99.99
2022-08-29T02:50:11.443Z,99.99
2022-08-29T02:51:11.671Z,99.99
2022-08-29T02:52:11.702Z,99.99
2022-08-29T02:53:11.522Z,99.99
2022-08-29T02:54:11.553Z,99.99
2022-08-29T02:55:11.577Z,99.99
2022-08-29T02:56:14.408Z,99.99
2022-08-29T02:57:11.629Z,99.99
2022-08-29T02:58:11.704Z,99.99
2022-08-29T03:00:14.279Z,99.99
2022-08-29T03:01:14.376Z,99.99
2022-08-29T03:02:14.378Z,99.99
2022-08-29T03:03:14.681Z,99.99
2022-08-29T03:04:14.396Z,99.99
2022-08-29T03:05:14.429Z,99.99
2022-08-29T03:06:14.454Z,99.99
2022-08-29T03:07:14.885Z,99.99
2022-08-29T03:09:14.531Z,99.99
2022-08-29T03:10:14.972Z,99.99
2022-08-29T03:11:14.586Z,99.99
2022-08-29T03:14:16.010Z,99.99
2022-08-29T03:17:14.747Z,99.99
2022-08-29T03:18:15.029Z,99.99
2022-08-29T03:19:15.006Z,99.99
2022-08-29T03:20:15.526Z,99.99
2022-08-29T03:21:14.854Z,99.99
2022-08-29T03:22:14.884Z,99.99
2022-08-29T03:24:15.330Z,99.99
2022-08-29T03:25:14.949Z,99.99
2022-08-29T03:26:14.977Z,99.99
2022-08-29T03:27:15.017Z,99.99
2022-08-29T03:28:15.297Z,99.99
2022-08-29T03:29:15.056Z,99.99
2022-08-29T03:30:15.084Z,99.99
2022-08-29T03:31:15.140Z,99.99
2022-08-29T03:32:15.150Z,99.99
2022-08-29T03:33:15.180Z,99.99
2022-08-29T03:34:15.205Z,99.99
2022-08-29T03:42:56.075Z,99.99
2022-08-29T03:43:56.090Z,99.99
2022-08-29T03:44:56.316Z,99.99
2022-08-29T03:45:56.156Z,99.99
2022-08-29T03:46:56.238Z,99.99
2022-08-29T03:47:56.193Z,99.99
2022-08-29T03:48:56.633Z,99.99
2022-08-29T03:49:56.256Z,99.99
2022-08-29T03:50:56.668Z,99.99
2022-08-29T03:51:56.312Z,99.99
2022-08-29T03:52:56.324Z,99.99
2022-08-29T03:53:56.353Z,99.99
2022-08-29T03:54:56.397Z,99.99
2022-08-29T03:55:56.418Z,99.99
2022-08-29T03:56:56.950Z,99.99
2022-08-29T03:57:56.781Z,99.99
2022-08-29T03:58:56.485Z,99.99
2022-08-29T03:59:56.525Z,99.99
2022-08-29T04:00:56.740Z,99.99
2022-08-29T04:01:57.052Z,99.99
2022-08-29T04:02:56.623Z,99.99
2022-08-29T04:03:56.941Z,99.99
2022-08-29T04:04:56.657Z,99.99
2022-08-29T04:05:56.685Z,99.99
2022-08-29T04:06:56.901Z,99.99
2022-08-29T04:07:56.740Z,99.99
2022-08-29T04:08:57.170Z,99.99
2022-08-29T04:09:56.795Z,99.99
2022-08-29T04:10:56.814Z,99.99
2022-08-29T04:11:56.848Z,99.99
2022-08-29T04:13:57.099Z,99.99
2022-08-29T04:14:56.930Z,99.99
2022-08-29T04:15:57.203Z,99.99
2022-08-29T04:16:57.181Z,99.99
2022-08-29T04:17:57.409Z,99.99
2022-08-29T04:19:57.066Z,99.99
2022-08-29T04:20:57.085Z,99.99
2022-08-29T04:21:57.826Z,99.99
2022-08-29T04:24:57.593Z,99.99
2022-08-29T04:26:12.720Z,99.99
2022-08-29T04:26:57.241Z,99.99
2022-08-29T04:27:58.189Z,99.99
2022-08-29T04:28:58.305Z,99.99
2022-08-29T04:29:57.328Z,99.99
2022-08-29T04:32:57.921Z,99.99
2022-08-29T04:33:58.131Z,99.99
2022-08-29T04:37:58.454Z,99.99
2022-08-29T04:40:58.113Z,99.99
2022-08-29T04:41:57.641Z,99.99
2022-08-29T04:42:57.878Z,99.99
2022-08-29T04:43:57.898Z,99.99
2022-08-29T04:45:57.849Z,99.99
2022-08-29T04:48:00.749Z,99.99
2022-08-29T04:49:57.844Z,99.99
2022-08-29T04:50:58.284Z,99.99
2022-08-29T04:51:57.911Z,99.99
2022-08-29T04:52:58.133Z,99.99
2022-08-29T04:53:59.281Z,99.99
2022-08-29T04:54:57.986Z,99.99
2022-08-29T04:56:58.041Z,99.99
2022-08-29T05:03:58.214Z,99.99
2022-08-29T05:04:58.844Z,99.99
2022-08-29T05:05:58.275Z,99.99
2022-08-29T05:06:58.302Z,99.99
2022-08-29T05:07:58.333Z,99.99
2022-08-29T05:08:59.910Z,99.99
2022-08-29T05:10:58.412Z,99.99
2022-08-29T05:11:58.440Z,99.99
2022-08-29T05:12:58.461Z,99.99
2022-08-29T05:13:58.493Z,99.99
2022-08-29T05:15:58.564Z,99.99
2022-08-29T05:17:58.582Z,99.99
2022-08-29T05:18:58.623Z,99.99
2022-08-29T05:20:58.678Z,99.99
2022-08-29T05:31:27.929Z,99.99
2022-08-29T05:32:27.893Z,99.99
2022-08-29T05:34:32.572Z,99.99
2022-08-29T05:35:15.519Z,99.99
2022-08-29T05:36:15.536Z,99.99
2022-08-29T05:37:15.580Z,99.99
2022-08-29T05:38:15.716Z,99.99
2022-08-29T05:39:15.632Z,99.99
2022-08-29T05:40:15.888Z,99.99
2022-08-29T05:41:15.682Z,99.99
2022-08-29T05:42:16.016Z,99.99
2022-08-29T05:43:15.722Z,99.99
2022-08-29T05:44:15.750Z,99.99
2022-08-29T05:45:15.789Z,99.99
2022-08-29T05:46:15.886Z,99.99
2022-08-29T05:47:16.048Z,99.99
2022-08-29T05:48:15.977Z,99.99
2022-08-29T05:49:15.885Z,99.99
2022-08-29T05:50:15.911Z,99.99
2022-08-29T05:51:16.156Z,99.99
2022-08-29T05:52:15.976Z,99.99
2022-08-29T05:53:16.673Z,99.99
2022-08-29T05:54:16.233Z,99.99
2022-08-29T05:55:16.367Z,99.99
2022-08-29T05:56:16.086Z,99.99
2022-08-29T05:58:16.365Z,99.99
2022-08-29T06:00:18.126Z,99.99
2022-08-29T06:02:16.840Z,99.99
2022-08-29T06:03:16.451Z,99.99
2022-08-29T06:04:16.510Z,99.99
2022-08-29T06:05:17.149Z,99.99
2022-08-29T06:06:16.765Z,99.99
2022-08-29T06:08:17.027Z,99.99
2022-08-29T06:09:16.450Z,99.99
2022-08-29T06:10:16.691Z,99.99
2022-08-29T06:11:16.506Z,99.99
2022-08-29T06:12:16.532Z,99.99
2022-08-29T06:13:16.561Z,99.99
2022-08-29T06:15:17.330Z,99.99
2022-08-29T06:17:16.669Z,99.99
2022-08-29T06:19:17.032Z,99.99
2022-08-29T06:20:16.958Z,99.99
2022-08-29T06:22:17.413Z,99.99
2022-08-29T06:24:17.073Z,99.99
2022-08-29T06:25:38.074Z,99.99
2022-08-29T06:26:17.127Z,99.99
2022-08-29T06:27:17.262Z,99.99
2022-08-29T06:28:23.931Z,99.99
2022-08-29T06:29:17.006Z,99.99
2022-08-29T06:32:17.090Z,99.99
2022-08-29T06:33:17.121Z,99.99
2022-08-29T06:34:17.347Z,99.99
2022-08-29T06:37:17.238Z,99.99
2022-08-29T06:38:17.523Z,99.99
2022-08-29T06:41:17.347Z,99.99
2022-08-29T06:42:17.578Z,99.99
2022-08-29T06:43:17.698Z,99.99
2022-08-29T06:44:17.634Z,99.99
2022-08-29T06:45:17.667Z,99.99
2022-08-29T06:46:17.564Z,99.99
2022-08-29T06:47:17.525Z,99.99
2022-08-29T06:48:17.751Z,99.99
2022-08-29T06:49:17.581Z,99.99
2022-08-29T06:50:17.805Z,99.99
2022-08-29T06:51:17.641Z,99.99
2022-08-29T06:52:18.579Z,99.99
2022-08-29T06:53:27.322Z,99.99
2022-08-29T06:54:17.937Z,99.99
2022-08-29T06:55:17.757Z,99.99
2022-08-29T06:57:17.809Z,99.99
2022-08-29T06:58:18.959Z,99.99
2022-08-29T06:59:17.855Z,99.99
2022-08-29T07:00:21.497Z,99.99
2022-08-29T07:02:18.207Z,99.99
2022-08-29T07:03:17.990Z,99.99
2022-08-29T07:05:26.006Z,99.99
2022-08-29T07:08:13.415Z,99.34
2022-08-29T07:09:13.447Z,99.05
2022-08-29T07:10:14.905Z,98.96
2022-08-29T07:11:13.516Z,99.44
2022-08-29T07:13:13.690Z,99.20
2022-08-29T07:16:39.980Z,96.37
2022-08-29T07:17:40.011Z,95.98
2022-08-29T07:18:40.443Z,95.75
2022-08-29T07:19:40.286Z,94.35
2022-08-29T07:20:40.100Z,94.45
2022-08-29T07:21:40.137Z,94.59
2022-08-29T07:22:40.183Z,93.44
2022-08-29T07:23:40.198Z,93.34
2022-08-29T07:24:40.227Z,93.29
2022-08-29T07:25:40.262Z,92.71
2022-08-29T07:26:40.304Z,92.43
2022-08-29T07:27:40.326Z,91.46
2022-08-29T07:28:43.241Z,91.66
2022-08-29T07:29:40.406Z,91.66
2022-08-29T07:30:40.466Z,91.17
2022-08-29T07:31:40.472Z,91.08
2022-08-29T07:32:40.486Z,90.83
2022-08-29T07:33:40.727Z,90.06
2022-08-29T07:34:40.557Z,89.68
2022-08-29T07:35:40.591Z,89.49
2022-08-29T07:36:40.626Z,89.78
2022-08-29T07:37:40.659Z,89.87
2022-08-29T07:39:41.329Z,88.76
2022-08-29T07:40:40.845Z,87.55
2022-08-29T07:41:40.792Z,87.55
2022-08-29T07:42:40.828Z,87.40
2022-08-29T07:44:30.340Z,85.96
2022-08-29T07:45:28.647Z,85.86
2022-08-29T07:46:28.730Z,85.77
2022-08-29T07:48:28.753Z,86.88
2022-08-29T07:49:40.234Z,86.05
2022-08-29T07:50:28.821Z,85.86
2022-08-29T07:51:28.856Z,86.15
2022-08-29T07:53:29.545Z,84.55
2022-08-29T07:55:11.533Z,83.50
2022-08-29T07:56:11.575Z,82.43
2022-08-29T07:57:15.643Z,82.39
2022-08-29T07:58:11.726Z,83.50
2022-08-29T08:00:50.779Z,82.24
2022-08-29T08:01:49.486Z,82.67
2022-08-29T08:02:49.462Z,81.99
2022-08-29T08:03:49.475Z,82.38
2022-08-29T08:04:52.439Z,83.00
2022-08-29T08:05:49.549Z,82.32
2022-08-29T08:06:49.589Z,81.51
2022-08-29T08:07:49.624Z,81.22
2022-08-29T08:08:49.668Z,81.22
2022-08-29T08:09:49.698Z,81.32
2022-08-29T08:10:52.175Z,81.32
2022-08-29T08:11:49.775Z,81.35
2022-08-29T08:12:49.812Z,81.40
2022-08-29T08:13:49.863Z,78.99
2022-08-29T08:14:49.883Z,78.89
2022-08-29T08:15:49.929Z,79.37
2022-08-29T08:16:50.006Z,78.31
2022-08-29T08:17:49.999Z,78.59
2022-08-29T08:18:50.439Z,79.66
2022-08-29T08:19:50.075Z,78.89
2022-08-29T08:20:50.111Z,79.17
2022-08-29T08:21:50.303Z,78.50
2022-08-29T08:22:50.186Z,78.31
2022-08-29T08:23:50.228Z,78.31
2022-08-29T08:25:50.300Z,77.57
2022-08-29T08:26:50.342Z,77.57
2022-08-29T08:27:50.377Z,77.22
2022-08-29T08:28:50.419Z,76.06
2022-08-29T08:29:50.454Z,75.81
2022-08-29T08:30:50.651Z,76.78
2022-08-29T08:31:50.531Z,75.95
2022-08-29T08:33:34.929Z,74.69
2022-08-29T08:34:35.735Z,74.05
2022-08-29T08:35:36.031Z,73.27
2022-08-29T08:37:33.292Z,72.30
2022-08-29T08:38:33.320Z,72.36
2022-08-29T08:39:33.361Z,73.43
2022-08-29T08:40:33.462Z,73.91
2022-08-29T08:41:33.436Z,73.72
2022-08-29T08:42:33.474Z,73.46
2022-08-29T08:43:33.517Z,74.36
2022-08-29T08:44:35.064Z,73.01
2022-08-29T08:45:33.591Z,74.04
2022-08-29T08:46:33.664Z,74.88
2022-08-29T08:47:33.671Z,73.27
2022-08-29T08:48:33.715Z,71.92
2022-08-29T08:49:33.744Z,71.56
2022-08-29T08:50:33.782Z,70.40
2022-08-29T08:51:33.821Z,70.44
2022-08-29T08:52:33.858Z,68.85
2022-08-29T08:53:33.896Z,68.89
2022-08-29T08:54:33.935Z,68.40
2022-08-29T08:55:33.976Z,68.73
2022-08-29T08:56:34.011Z,68.15
2022-08-29T08:57:34.052Z,68.24
2022-08-29T08:58:34.089Z,68.73
2022-08-29T08:59:34.131Z,68.28
2022-08-29T09:00:34.166Z,68.08
2022-08-29T09:01:34.239Z,67.21
2022-08-29T09:02:34.411Z,67.21
2022-08-29T09:03:34.283Z,67.05
2022-08-29T09:04:34.320Z,67.66
2022-08-29T09:05:34.362Z,67.08
2022-08-29T09:06:34.397Z,68.21
2022-08-29T09:07:34.641Z,67.72
2022-08-29T09:08:34.485Z,68.34
2022-08-29T09:09:34.527Z,68.12
2022-08-29T09:10:34.551Z,68.34
2022-08-29T09:11:34.605Z,67.89
2022-08-29T09:12:34.628Z,67.27
2022-08-29T09:13:34.669Z,67.21
2022-08-29T09:14:34.705Z,66.37
2022-08-29T09:15:34.745Z,66.30
2022-08-29T09:16:34.842Z,65.43
2022-08-29T09:17:36.416Z,64.85
2022-08-29T09:18:35.116Z,65.82
2022-08-29T09:19:34.899Z,65.53
2022-08-29T09:20:34.954Z,65.50
2022-08-29T09:21:41.029Z,65.72
2022-08-29T09:22:35.011Z,64.49
2022-08-29T09:23:35.051Z,64.46
2022-08-29T09:24:35.099Z,65.95
2022-08-29T09:25:35.126Z,66.08
2022-08-29T09:26:35.164Z,65.92
2022-08-29T09:28:35.241Z,66.66
2022-08-29T09:29:35.280Z,65.72
2022-08-29T09:30:35.330Z,65.14
2022-08-29T09:31:35.413Z,63.88
2022-08-29T09:32:35.394Z,63.49
2022-08-29T09:33:35.428Z,64.65
2022-08-29T09:34:57.109Z,65.11
2022-08-29T09:35:35.514Z,65.69
2022-08-29T09:36:35.556Z,65.30
2022-08-29T09:38:35.614Z,65.95
2022-08-29T09:39:35.655Z,65.95
2022-08-29T09:40:35.755Z,66.27
2022-08-29T09:41:35.729Z,65.33
2022-08-29T09:42:35.764Z,65.05
2022-08-29T09:43:35.803Z,64.75
2022-08-29T09:44:35.849Z,64.56
2022-08-29T09:45:35.885Z,65.33
2022-08-29T09:46:35.910Z,64.85
2022-08-29T09:47:35.957Z,64.36
2022-08-29T09:48:35.984Z,64.49
2022-08-29T09:49:36.022Z,63.62
2022-08-29T09:50:36.056Z,62.38
2022-08-29T09:51:36.097Z,61.61
2022-08-29T09:52:36.448Z,61.90
2022-08-29T09:53:36.166Z,62.00
2022-08-29T09:54:36.202Z,63.39
2022-08-29T09:55:36.239Z,64.23
2022-08-29T09:56:36.271Z,64.78
2022-08-29T09:57:36.310Z,64.69
2022-08-29T09:58:39.905Z,65.75
2022-08-29T09:59:36.381Z,64.78
2022-08-29T10:00:36.415Z,64.47
2022-08-29T10:01:36.953Z,64.69
2022-08-29T10:02:36.571Z,65.82
2022-08-29T10:03:38.099Z,65.37
2022-08-29T10:05:36.606Z,63.95
2022-08-29T10:07:37.699Z,63.10
2022-08-29T10:08:36.692Z,63.13
2022-08-29T10:09:37.134Z,62.84
2022-08-29T10:10:36.763Z,62.97
2022-08-29T10:11:36.799Z,60.83
2022-08-29T10:12:36.834Z,60.47
2022-08-29T10:13:36.872Z,60.70
2022-08-29T10:14:36.905Z,60.80
2022-08-29T10:15:50.508Z,61.74
2022-08-29T10:16:37.075Z,63.04
2022-08-29T10:17:37.012Z,63.98
2022-08-29T10:18:37.048Z,64.40
2022-08-29T10:19:37.082Z,64.43
2022-08-29T10:20:37.114Z,64.04
2022-08-29T10:21:37.152Z,63.68
2022-08-29T10:22:37.184Z,62.98
2022-08-29T10:23:37.233Z,63.62
2022-08-29T10:24:37.253Z,64.30
2022-08-29T10:25:37.289Z,64.30
2022-08-29T10:26:37.322Z,64.75
2022-08-29T10:27:37.359Z,65.30
2022-08-29T10:28:37.392Z,65.63
2022-08-29T10:29:37.428Z,65.05
2022-08-29T10:30:37.461Z,65.24
2022-08-29T10:31:37.528Z,65.34
2022-08-29T10:32:37.530Z,65.47
2022-08-29T10:33:37.566Z,64.82
2022-08-29T10:34:37.600Z,64.56
2022-08-29T10:35:37.635Z,62.94
2022-08-29T10:36:37.669Z,62.52
2022-08-29T10:37:38.024Z,62.42
2022-08-29T10:38:37.735Z,62.91
2022-08-29T10:39:37.773Z,62.42
2022-08-29T10:40:37.872Z,63.04
2022-08-29T10:41:38.041Z,63.13
2022-08-29T10:42:37.873Z,61.90
2022-08-29T10:43:37.907Z,61.77
2022-08-29T10:44:37.942Z,61.90
2022-08-29T10:45:38.049Z,61.87
2022-08-29T10:46:38.017Z,61.77
2022-08-29T10:47:38.048Z,61.48
2022-08-29T10:48:38.075Z,62.16
2022-08-29T10:49:41.840Z,62.16
2022-08-29T10:50:44.552Z,62.00
2022-08-29T10:51:38.180Z,61.74
2022-08-29T10:52:38.531Z,62.52
2022-08-29T10:53:38.247Z,63.20
2022-08-29T10:54:38.283Z,63.13
2022-08-29T10:55:38.317Z,62.42
2022-08-29T10:56:38.353Z,62.32
2022-08-29T10:57:38.384Z,63.01
2022-08-29T10:58:38.422Z,62.98
2022-08-29T10:59:38.451Z,63.46
2022-08-29T11:00:38.521Z,63.65
2022-08-29T11:01:38.540Z,64.40
2022-08-29T11:02:38.564Z,64.59
2022-08-29T11:03:38.639Z,64.40
2022-08-29T11:04:38.819Z,64.11
2022-08-29T11:05:38.653Z,64.20
2022-08-29T11:06:38.691Z,64.50
2022-08-29T11:07:38.720Z,64.17
2022-08-29T11:08:38.752Z,64.85
2022-08-29T11:09:38.786Z,64.88
2022-08-29T11:10:38.818Z,64.37
2022-08-29T11:11:38.854Z,64.37
2022-08-29T11:12:38.884Z,65.08
2022-08-29T11:13:38.923Z,64.59
2022-08-29T11:14:38.952Z,64.98
2022-08-29T11:15:38.987Z,64.75
2022-08-29T11:16:39.059Z,65.47
2022-08-29T11:17:39.052Z,64.07
2022-08-29T11:18:39.084Z,64.27
2022-08-29T11:19:39.118Z,64.85
2022-08-29T11:20:39.149Z,66.02
2022-08-29T11:21:39.183Z,65.20
2022-08-29T11:22:39.215Z,65.50
2022-08-29T11:23:39.249Z,65.20
2022-08-29T11:24:40.572Z,66.37
2022-08-29T11:25:39.315Z,66.72
2022-08-29T11:26:39.360Z,66.82
2022-08-29T11:27:39.413Z,67.40
2022-08-29T11:28:39.485Z,66.88
2022-08-29T11:29:39.446Z,66.72
2022-08-29T11:30:42.614Z,67.60
2022-08-29T11:31:39.683Z,67.69
2022-08-29T11:32:39.543Z,66.98
2022-08-29T11:33:39.576Z,67.02
2022-08-29T11:34:39.609Z,66.88
2022-08-29T11:35:39.642Z,68.11
2022-08-29T11:36:39.672Z,67.85
2022-08-29T11:37:42.329Z,68.05
2022-08-29T11:38:39.736Z,67.46
2022-08-29T11:39:39.770Z,67.18
2022-08-29T11:40:47.647Z,67.21
2022-08-29T11:41:39.889Z,66.92
2022-08-29T11:42:55.195Z,66.50
2022-08-29T11:43:39.902Z,67.27
2022-08-29T11:44:39.931Z,67.27
2022-08-29T11:45:39.967Z,67.37
2022-08-29T11:46:40.085Z,66.60
2022-08-29T11:47:41.189Z,66.78
2022-08-29T11:48:40.061Z,66.78
2022-08-29T11:49:40.098Z,66.92
2022-08-29T11:50:40.126Z,66.50
2022-08-29T11:51:40.160Z,65.82
2022-08-29T11:52:40.189Z,65.92
2022-08-29T11:53:40.225Z,66.02
2022-08-29T11:54:40.263Z,66.24
2022-08-29T11:55:40.289Z,64.40
2022-08-29T11:56:40.319Z,64.50
2022-08-29T11:57:40.352Z,63.34
2022-08-29T11:58:40.395Z,63.04
2022-08-29T11:59:40.418Z,62.85
2022-08-29T12:00:40.450Z,62.46
2022-08-29T12:01:40.531Z,62.85
2022-08-29T12:02:40.515Z,64.50
2022-08-29T12:03:40.611Z,64.27
2022-08-29T12:04:40.651Z,65.79
2022-08-29T12:05:40.612Z,66.50
2022-08-29T12:06:40.642Z,66.50
2022-08-29T12:07:40.677Z,65.43
2022-08-29T12:08:40.707Z,66.02
2022-08-29T12:09:40.739Z,66.30
2022-08-29T12:10:40.771Z,66.56
2022-08-29T12:11:40.804Z,65.98
2022-08-29T12:12:40.834Z,66.08
2022-08-29T12:13:40.868Z,66.47
2022-08-29T12:14:40.898Z,66.56
2022-08-29T12:15:40.933Z,67.14
2022-08-29T12:16:40.995Z,67.21
2022-08-29T12:18:01.056Z,67.88
2022-08-29T12:18:41.026Z,67.40
2022-08-29T12:19:41.060Z,67.49
2022-08-29T12:20:41.089Z,67.40
2022-08-29T12:21:41.139Z,67.30
2022-08-29T12:23:41.186Z,66.17
2022-08-29T12:24:41.216Z,66.27
2022-08-29T12:25:41.249Z,66.37
2022-08-29T12:26:41.278Z,65.50
2022-08-29T12:27:41.314Z,66.88
2022-08-29T12:28:41.345Z,66.14
2022-08-29T12:29:44.573Z,65.17
2022-08-29T12:30:41.406Z,64.30
2022-08-29T12:32:41.561Z,63.43
2022-08-29T12:33:41.502Z,63.21
2022-08-29T12:34:41.536Z,63.43
2022-08-29T12:35:41.565Z,63.43
2022-08-29T12:36:41.601Z,62.85
2022-08-29T12:37:41.629Z,63.34
2022-08-29T12:38:42.581Z,62.66
2022-08-29T12:39:41.694Z,63.34
2022-08-29T12:40:41.787Z,63.34
2022-08-29T12:41:41.758Z,63.04
2022-08-29T12:42:41.803Z,62.24
2022-08-29T12:43:41.824Z,62.34
2022-08-29T12:44:41.877Z,62.82
2022-08-29T12:45:42.203Z,62.72
2022-08-29T12:46:42.017Z,62.34
2022-08-29T12:47:45.854Z,61.56
2022-08-29T12:48:41.981Z,62.14
2022-08-29T12:49:42.011Z,62.14
2022-08-29T12:50:42.045Z,62.63
2022-08-29T12:51:42.077Z,63.21
2022-08-29T12:52:42.106Z,62.72
2022-08-29T12:53:42.144Z,62.88
2022-08-29T12:54:42.171Z,63.27
2022-08-29T12:55:42.204Z,63.08
2022-08-29T12:56:42.235Z,63.46
2022-08-29T12:57:42.266Z,64.07
2022-08-29T12:58:42.300Z,63.89
2022-08-29T12:59:42.332Z,63.49
2022-08-29T13:01:42.455Z,63.49
2022-08-29T13:02:42.488Z,63.04
2022-08-29T13:03:42.458Z,63.31
2022-08-29T13:04:42.490Z,63.62
2022-08-29T13:05:42.520Z,63.62
2022-08-29T13:06:42.553Z,63.34
2022-08-29T13:07:42.585Z,62.75
2022-08-29T13:08:42.617Z,62.27
2022-08-29T13:09:42.647Z,61.79
2022-08-29T13:10:42.682Z,62.37
2022-08-29T13:11:42.712Z,62.37
2022-08-29T13:12:42.743Z,63.14
2022-08-29T13:13:42.774Z,63.53
2022-08-29T13:14:42.809Z,64.53
2022-08-29T13:15:42.895Z,64.24
2022-08-29T13:16:42.874Z,64.24
2022-08-29T13:17:42.916Z,64.17
2022-08-29T13:19:00.323Z,63.88
2022-08-29T13:19:42.966Z,63.40
2022-08-29T13:20:43.283Z,63.88
2022-08-29T13:21:43.231Z,64.07
2022-08-29T13:22:43.078Z,64.17
2022-08-29T13:23:43.413Z,64.17
2022-08-29T13:24:43.127Z,64.56
2022-08-29T13:25:43.190Z,64.47
2022-08-29T13:26:43.191Z,64.85
2022-08-29T13:27:43.222Z,64.37
2022-08-29T13:28:43.254Z,64.92
2022-08-29T13:29:43.287Z,64.95
2022-08-29T13:30:43.320Z,65.05
2022-08-29T13:31:43.396Z,64.37
2022-08-29T13:32:47.000Z,64.53
2022-08-29T13:33:43.413Z,64.04
2022-08-29T13:34:43.447Z,63.85
2022-08-29T13:35:43.478Z,64.34
2022-08-29T13:36:43.832Z,64.53
2022-08-29T13:37:43.542Z,62.59
2022-08-29T13:38:43.783Z,61.52
2022-08-29T13:39:43.618Z,61.43
2022-08-29T13:40:43.715Z,61.72
2022-08-29T13:41:43.671Z,61.62
2022-08-29T13:42:43.710Z,61.62
2022-08-29T13:43:43.735Z,61.65
2022-08-29T13:44:43.779Z,61.17
2022-08-29T13:45:43.798Z,61.26
2022-08-29T13:46:43.894Z,61.26
2022-08-29T13:47:43.864Z,61.43
2022-08-29T13:48:43.899Z,61.33
2022-08-29T13:49:43.927Z,61.43
2022-08-29T13:50:43.991Z,62.20
2022-08-29T13:51:43.993Z,62.59
2022-08-29T13:52:44.126Z,62.49
2022-08-29T13:53:44.737Z,62.30
2022-08-29T13:54:44.304Z,62.69
2022-08-29T13:55:44.119Z,63.07
2022-08-29T13:56:44.156Z,63.07
2022-08-29T13:58:44.216Z,63.37
2022-08-29T13:59:44.251Z,62.98
2022-08-29T14:00:44.280Z,63.65
2022-08-29T14:02:14.266Z,64.04
2022-08-29T14:02:45.574Z,64.04
2022-08-29T14:03:44.546Z,64.14
2022-08-29T14:04:44.521Z,63.56
2022-08-29T14:05:44.457Z,63.56
2022-08-29T14:06:44.473Z,63.24
2022-08-29T14:07:44.523Z,63.82
2022-08-29T14:08:45.299Z,64.04
2022-08-29T14:09:44.581Z,63.95
2022-08-29T14:10:44.600Z,63.37
2022-08-29T14:11:44.637Z,63.27
2022-08-29T14:12:44.664Z,63.49
2022-08-29T14:13:44.738Z,63.59
2022-08-29T14:15:44.819Z,62.82
2022-08-29T14:16:44.794Z,63.01
2022-08-29T14:17:44.824Z,63.10
2022-08-29T14:18:44.859Z,63.10
2022-08-29T14:19:44.888Z,62.82
2022-08-29T14:20:44.922Z,62.91
2022-08-29T14:21:44.953Z,62.95
2022-08-29T14:22:45.193Z,62.55
2022-08-29T14:23:45.017Z,62.33
2022-08-29T14:24:45.052Z,62.82
2022-08-29T14:25:45.081Z,63.10
2022-08-29T14:26:45.132Z,63.04
2022-08-29T14:27:45.145Z,62.43
2022-08-29T14:28:48.134Z,63.01
2022-08-29T14:29:45.214Z,63.20
2022-08-29T14:30:47.836Z,62.91
2022-08-29T14:31:45.274Z,63.10
2022-08-29T14:32:45.307Z,63.01
2022-08-29T14:33:45.338Z,63.30
2022-08-29T14:34:51.028Z,63.20
2022-08-29T14:35:45.404Z,62.91
2022-08-29T14:36:48.222Z,63.69
2022-08-29T14:37:45.465Z,63.10
2022-08-29T14:38:45.502Z,63.27
2022-08-29T14:39:45.533Z,63.49
2022-08-29T14:40:45.650Z,63.46
2022-08-29T14:41:45.595Z,63.49
2022-08-29T14:42:45.632Z,64.17
2022-08-29T14:43:45.662Z,63.85
2022-08-29T14:44:45.695Z,64.24
2022-08-29T14:45:45.724Z,64.24
2022-08-29T14:46:45.826Z,64.24
2022-08-29T14:47:45.790Z,64.34
2022-08-29T14:48:45.839Z,64.37
2022-08-29T14:49:45.853Z,63.56
2022-08-29T14:50:45.889Z,63.85
2022-08-29T14:51:45.920Z,64.04
2022-08-29T14:52:45.954Z,64.11
2022-08-29T14:53:51.510Z,64.14
2022-08-29T14:54:46.027Z,64.92
2022-08-29T14:55:46.058Z,64.53
2022-08-29T14:56:49.114Z,64.53
2022-08-29T14:57:46.127Z,65.11
2022-08-29T14:58:46.347Z,64.72
2022-08-29T14:59:46.176Z,64.56